Time;durP1;ratioP1;P1;durP2;ratioP2;P2;SDS_P1;SDS_P2;PMS_P1;PMS_P2;Temp;Humidity;BMP_temperature;BMP_pressure;BME280_temperature;BME280_humidity;BME280_pressure;Samples;Min_cycle;Max_cycle;Signal;HPM_P1;HPM_P2
2021/06/09 00:00:53;;;;;;;26.95;24.30;;;;;;;;;;5097592;28;20461;-59
2021/06/09 00:03:20;;;;;;;29.48;26.35;;;;;;;;;;5097256;28;20020;-59
2021/06/09 00:05:47;;;;;;;27.83;25.25;;;;;;;;;;5096970;28;20591;-59
2021/06/09 00:08:13;;;;;;;27.60;24.80;;;;;;;;;;5096910;28;20028;-59
2021/06/09 00:10:39;;;;;;;30.05;26.75;;;;;;;;;;5097140;28;20098;-59
2021/06/09 00:13:05;;;;;;;27.77;24.77;;;;;;;;;;5096740;28;20020;-59
2021/06/09 00:15:31;;;;;;;24.88;22.23;;;;;;;;;;5097758;28;20031;-59
2021/06/09 00:17:57;;;;;;;25.65;23.08;;;;;;;;;;5096997;28;20028;-59
2021/06/09 00:20:25;;;;;;;24.80;22.20;;;;;;;;;;5096697;28;20081;-59
2021/06/09 00:22:51;;;;;;;22.60;20.33;;;;;;;;;;5097175;28;20056;-58
2021/06/09 00:25:18;;;;;;;23.10;20.80;;;;;;;;;;5096752;28;20062;-59
2021/06/09 00:27:49;;;;;;;25.15;22.63;;;;;;;;;;5096708;28;20024;-59
2021/06/09 00:30:26;;;;;;;26.70;24.00;;;;;;;;;;5096656;28;20032;-59
2021/06/09 00:32:52;;;;;;;23.98;21.52;;;;;;;;;;5096781;28;20035;-59
2021/06/09 00:35:18;;;;;;;23.52;21.17;;;;;;;;;;5096381;28;20028;-59
2021/06/09 00:37:44;;;;;;;23.85;21.58;;;;;;;;;;5078677;28;20032;-59
2021/06/09 00:40:11;;;;;;;23.17;20.98;;;;;;;;;;5095463;28;20114;-59
2021/06/09 00:42:38;;;;;;;25.17;22.65;;;;;;;;;;5097206;28;20035;-59
2021/06/09 00:45:08;;;;;;;25.40;22.83;;;;;;;;;;5096469;28;20517;-59
2021/06/09 00:47:34;;;;;;;25.77;23.23;;;;;;;;;;5096695;28;20031;-59
2021/06/09 00:50:00;;;;;;;25.23;22.75;;;;;;;;;;5096259;28;20068;-59
2021/06/09 00:52:27;;;;;;;22.42;20.42;;;;;;;;;;5096768;28;20567;-59
2021/06/09 00:54:53;;;;;;;26.02;23.33;;;;;;;;;;5096534;28;20031;-59
2021/06/09 00:57:20;;;;;;;25.65;23.15;;;;;;;;;;5094952;28;20050;-59
2021/06/09 00:59:46;;;;;;;24.27;21.88;;;;;;;;;;5095652;28;20030;-58
2021/06/09 01:02:12;;;;;;;25.20;22.70;;;;;;;;;;5095342;28;20365;-59
2021/06/09 01:04:38;;;;;;;26.02;23.55;;;;;;;;;;5096823;28;20024;-59
2021/06/09 01:07:05;;;;;;;26.35;23.67;;;;;;;;;;5095298;28;20024;-59
2021/06/09 01:09:31;;;;;;;26.08;23.30;;;;;;;;;;5095972;28;20051;-59
2021/06/09 01:11:58;;;;;;;26.60;24.20;;;;;;;;;;5096122;28;20039;-58
2021/06/09 01:14:25;;;;;;;28.98;26.02;;;;;;;;;;5095846;28;20044;-59
2021/06/09 01:16:51;;;;;;;26.83;24.27;;;;;;;;;;5096104;28;20020;-59
2021/06/09 01:19:18;;;;;;;25.35;23.05;;;;;;;;;;5096242;28;20039;-58
2021/06/09 01:21:45;;;;;;;22.00;19.85;;;;;;;;;;5095308;28;20035;-59
2021/06/09 01:24:11;;;;;;;22.83;20.63;;;;;;;;;;5095956;28;20035;-59
2021/06/09 01:26:38;;;;;;;24.10;21.67;;;;;;;;;;5094673;28;20373;-58
2021/06/09 01:29:06;;;;;;;22.95;20.88;;;;;;;;;;5095550;28;20090;-59
2021/06/09 01:31:32;;;;;;;22.27;20.20;;;;;;;;;;5094545;28;20081;-59
2021/06/09 01:34:08;;;;;;;22.60;20.40;;;;;;;;;;5094550;28;20024;-59
2021/06/09 01:36:38;;;;;;;21.05;19.00;;;;;;;;;;5095763;28;20029;-59
2021/06/09 01:39:10;;;;;;;22.90;20.83;;;;;;;;;;5094065;28;20031;-58
2021/06/09 01:41:41;;;;;;;22.90;20.42;;;;;;;;;;5094671;28;20032;-59
2021/06/09 01:44:07;;;;;;;24.55;22.25;;;;;;;;;;5095952;28;20036;-59
2021/06/09 01:46:33;;;;;;;26.85;23.88;;;;;;;;;;5096033;28;20446;-59
2021/06/09 01:48:59;;;;;;;25.08;22.70;;;;;;;;;;5095155;28;20028;-59
2021/06/09 01:51:25;;;;;;;23.73;21.38;;;;;;;;;;5095423;28;20453;-59
2021/06/09 01:53:51;;;;;;;26.67;23.90;;;;;;;;;;5094743;28;20020;-59
2021/06/09 01:56:17;;;;;;;26.98;24.13;;;;;;;;;;5095382;28;20035;-59
2021/06/09 01:58:43;;;;;;;28.85;25.85;;;;;;;;;;5095528;28;20525;-59
2021/06/09 02:01:10;;;;;;;26.98;24.27;;;;;;;;;;5095610;28;20361;-58
2021/06/09 02:03:36;;;;;;;31.13;27.92;;;;;;;;;;5094918;28;20035;-59
2021/06/09 02:06:02;;;;;;;29.17;26.08;;;;;;;;;;5094903;28;20157;-59
2021/06/09 02:08:28;;;;;;;30.85;27.63;;;;;;;;;;5094586;28;20097;-59
2021/06/09 02:10:54;;;;;;;27.45;24.45;;;;;;;;;;5095250;28;20052;-59
2021/06/09 02:13:22;;;;;;;28.45;25.48;;;;;;;;;;5094639;28;20031;-59
2021/06/09 02:15:53;;;;;;;29.52;26.30;;;;;;;;;;5094238;28;20060;-59
2021/06/09 02:18:19;;;;;;;;;;;;;;;;;;5095710;28;20023;-59
2021/06/09 02:20:49;;;;;;;26.52;23.80;;;;;;;;;;5095213;28;19911;-59
2021/06/09 02:23:23;;;;;;;24.67;22.17;;;;;;;;;;5094590;28;20465;-59
2021/06/09 02:25:50;;;;;;;26.38;22.05;;;;;;;;;;5094995;28;20373;-59
2021/06/09 02:28:18;;;;;;;23.08;20.77;;;;;;;;;;5094790;28;20055;-59
2021/06/09 02:30:45;;;;;;;21.75;19.55;;;;;;;;;;5094338;28;20369;-59
2021/06/09 02:33:12;;;;;;;22.00;19.90;;;;;;;;;;5092954;28;20119;-59
2021/06/09 02:35:39;;;;;;;20.50;18.40;;;;;;;;;;5094664;28;20053;-59
2021/06/09 02:38:05;;;;;;;21.58;19.27;;;;;;;;;;5094309;28;20035;-59
2021/06/09 02:40:32;;;;;;;22.63;20.48;;;;;;;;;;5093035;28;20024;-59
2021/06/09 02:42:58;;;;;;;19.65;17.90;;;;;;;;;;5094856;28;20024;-59
2021/06/09 02:45:24;;;;;;;20.90;19.00;;;;;;;;;;5094157;28;20446;-59
2021/06/09 02:47:53;;;;;;;21.65;19.55;;;;;;;;;;5094747;28;20028;-59
2021/06/09 02:50:21;;;;;;;21.80;19.60;;;;;;;;;;5094786;28;20449;-59
2021/06/09 02:53:02;;;;;;;21.77;19.73;;;;;;;;;;5092758;28;20027;-59
2021/06/09 02:55:28;;;;;;;;;;;;;;;;;;5094391;28;20016;-58
2021/06/09 02:58:12;;;;;;;22.60;20.40;;;;;;;;;;5094249;28;19910;-59
2021/06/09 03:00:41;;;;;;;22.92;20.55;;;;;;;;;;5093961;28;20032;-58
2021/06/09 03:03:14;;;;;;;21.35;19.13;;;;;;;;;;5094230;28;20055;-59
2021/06/09 03:05:42;;;;;;;23.00;20.42;;;;;;;;;;5093912;28;20028;-58
2021/06/09 03:08:14;;;;;;;23.80;21.40;;;;;;;;;;5093835;28;20047;-59
2021/06/09 03:10:47;;;;;;;24.10;21.77;;;;;;;;;;5093544;28;20036;-59
2021/06/09 03:13:25;;;;;;;27.77;24.08;;;;;;;;;;5094345;28;20065;-58
2021/06/09 03:16:06;;;;;;;25.40;22.70;;;;;;;;;;5094655;28;20414;-58
2021/06/09 03:18:35;;;;;;;23.80;21.42;;;;;;;;;;5094186;28;20042;-58
2021/06/09 03:21:09;;;;;;;24.65;22.08;;;;;;;;;;5093831;28;20111;-59
2021/06/09 03:23:51;;;;;;;27.52;24.80;;;;;;;;;;5093052;28;20031;-58
2021/06/09 03:26:26;;;;;;;26.00;23.27;;;;;;;;;;5096188;28;20032;-59
2021/06/09 03:28:57;;;;;;;28.65;25.88;;;;;;;;;;5098486;28;20028;-59
2021/06/09 03:31:23;;;;;;;;;;;;;;;;;;5098567;28;20103;-58
2021/06/09 03:33:52;;;;;;;25.42;22.90;;;;;;;;;;5097931;28;20317;-59
2021/06/09 03:36:29;;;;;;;27.17;23.48;;;;;;;;;;5098625;28;20024;-58
2021/06/09 03:38:58;;;;;;;24.45;22.08;;;;;;;;;;5098022;28;20028;-59
2021/06/09 03:41:26;;;;;;;24.92;21.88;;;;;;;;;;5096813;28;20016;-59
2021/06/09 03:43:53;;;;;;;25.00;22.35;;;;;;;;;;5097648;28;20111;-58
2021/06/09 03:46:23;;;;;;;25.60;23.15;;;;;;;;;;5096514;28;20416;-59
2021/06/09 03:48:53;;;;;;;24.88;22.52;;;;;;;;;;5097561;28;20079;-59
2021/06/09 03:51:19;;;;;;;24.73;22.35;;;;;;;;;;5096460;28;20024;-58
2021/06/09 03:53:46;;;;;;;27.17;24.38;;;;;;;;;;5097448;28;20030;-59
2021/06/09 03:56:13;;;;;;;26.42;23.80;;;;;;;;;;5097413;28;20052;-58
2021/06/09 03:58:41;;;;;;;25.63;22.92;;;;;;;;;;5097975;28;20028;-58
2021/06/09 04:01:07;;;;;;;25.77;22.83;;;;;;;;;;5097746;28;20035;-59
2021/06/09 04:03:33;;;;;;;26.35;23.73;;;;;;;;;;5096098;28;20028;-58
2021/06/09 04:06:00;;;;;;;26.23;23.65;;;;;;;;;;5098074;28;20471;-59
2021/06/09 04:08:27;;;;;;;25.63;23.10;;;;;;;;;;5097015;28;20039;-58
2021/06/09 04:10:56;;;;;;;25.92;23.38;;;;;;;;;;5097206;28;20492;-59
2021/06/09 04:13:23;;;;;;;25.33;22.70;;;;;;;;;;5097167;28;20035;-59
2021/06/09 04:15:50;;;;;;;26.02;23.30;;;;;;;;;;5097277;28;20457;-59
2021/06/09 04:18:17;;;;;;;25.63;23.23;;;;;;;;;;5097568;28;20016;-58
2021/06/09 04:20:43;;;;;;;24.55;22.00;;;;;;;;;;5096331;28;20028;-59
2021/06/09 04:23:10;;;;;;;24.33;21.85;;;;;;;;;;5097238;28;20504;-59
2021/06/09 04:25:39;;;;;;;23.48;21.13;;;;;;;;;;5096909;28;20024;-59
2021/06/09 04:28:10;;;;;;;22.50;20.35;;;;;;;;;;5096599;28;20066;-59
2021/06/09 04:30:36;;;;;;;21.58;19.38;;;;;;;;;;5096353;28;20078;-59
2021/06/09 04:33:10;;;;;;;24.30;19.40;;;;;;;;;;5078431;28;20028;-59
2021/06/09 04:35:44;;;;;;;20.08;18.08;;;;;;;;;;5097117;28;20114;-59
2021/06/09 04:38:14;;;;;;;21.83;19.77;;;;;;;;;;5096696;28;20055;-59
2021/06/09 04:40:40;;;;;;;22.08;19.70;;;;;;;;;;5095378;28;20032;-58
2021/06/09 04:43:06;;;;;;;22.02;19.92;;;;;;;;;;5096527;28;20128;-58
2021/06/09 04:45:32;;;;;;;21.38;19.17;;;;;;;;;;5096480;28;20054;-59
2021/06/09 04:47:58;;;;;;;22.48;20.17;;;;;;;;;;5096468;28;20025;-59
2021/06/09 04:50:26;;;;;;;20.95;18.98;;;;;;;;;;5096814;28;20032;-59
2021/06/09 04:52:52;;;;;;;20.38;18.40;;;;;;;;;;5096372;28;20020;-59
2021/06/09 04:55:19;;;;;;;19.63;17.63;;;;;;;;;;5095888;28;20085;-59
2021/06/09 04:57:45;;;;;;;18.38;16.67;;;;;;;;;;5096359;28;20016;-59
2021/06/09 05:00:13;;;;;;;20.90;18.88;;;;;;;;;;5096250;28;20020;-58
2021/06/09 05:02:39;;;;;;;20.95;18.95;;;;;;;;;;5096420;28;20020;-59
2021/06/09 05:05:05;;;;;;;19.30;17.45;;;;;;;;;;5096144;28;20028;-59
2021/06/09 05:07:31;;;;;;;20.15;16.30;;;;;;;;;;5096033;28;20035;-59
2021/06/09 05:09:58;;;;;;;19.83;17.77;;;;;;;;;;5095515;28;20048;-59
2021/06/09 05:12:42;;;;;;;21.42;19.38;;;;;;;;;;5096493;28;20115;-59
2021/06/09 05:15:12;;;;;;;19.52;17.75;;;;;;;;;;5096236;28;20028;-60
2021/06/09 05:17:44;;;;;;;20.63;17.35;;;;;;;;;;5095815;28;20031;-59
2021/06/09 05:20:10;;;;;;;19.35;17.45;;;;;;;;;;5094538;28;20377;-59
2021/06/09 05:22:39;;;;;;;21.05;19.00;;;;;;;;;;5095856;28;20028;-59
2021/06/09 05:25:07;;;;;;;20.10;18.10;;;;;;;;;;5095965;28;20028;-60
2021/06/09 05:27:33;;;;;;;21.77;19.45;;;;;;;;;;5094288;28;20028;-60
2021/06/09 05:30:00;;;;;;;20.63;18.42;;;;;;;;;;5095408;28;20111;-60
2021/06/09 05:32:29;;;;;;;20.58;18.63;;;;;;;;;;5096405;28;20405;-60
2021/06/09 05:34:57;;;;;;;22.77;20.58;;;;;;;;;;5095805;28;20046;-60
2021/06/09 05:37:23;;;;;;;20.88;18.88;;;;;;;;;;5095463;28;20039;-60
2021/06/09 05:39:51;;;;;;;19.35;17.50;;;;;;;;;;5094172;28;20080;-60
2021/06/09 05:42:18;;;;;;;23.48;19.90;;;;;;;;;;5095717;28;20059;-60
2021/06/09 05:44:45;;;;;;;21.60;19.50;;;;;;;;;;5095384;28;20044;-60
2021/06/09 05:47:11;;;;;;;23.55;20.23;;;;;;;;;;5095296;28;20029;-60
2021/06/09 05:49:38;;;;;;;21.50;19.25;;;;;;;;;;5094628;28;20080;-60
2021/06/09 05:52:06;;;;;;;23.23;21.10;;;;;;;;;;5095124;28;20034;-60
2021/06/09 05:54:37;;;;;;;22.77;20.30;;;;;;;;;;5093729;28;20420;-60
2021/06/09 05:57:07;;;;;;;21.52;19.45;;;;;;;;;;5095877;28;20034;-59
2021/06/09 05:59:34;;;;;;;20.60;18.60;;;;;;;;;;5095119;28;20055;-60
2021/06/09 06:02:00;;;;;;;19.15;17.35;;;;;;;;;;5094984;28;20055;-60
2021/06/09 06:04:26;;;;;;;21.02;18.83;;;;;;;;;;5094174;28;20621;-60
2021/06/09 06:06:53;;;;;;;20.38;16.77;;;;;;;;;;5094170;28;20093;-60
2021/06/09 06:09:19;;;;;;;18.92;17.00;;;;;;;;;;5094270;28;20048;-60
2021/06/09 06:11:46;;;;;;;17.65;16.15;;;;;;;;;;5093546;28;20467;-60
2021/06/09 06:14:12;;;;;;;19.63;17.73;;;;;;;;;;5094863;28;20019;-60
2021/06/09 06:16:39;;;;;;;19.50;17.35;;;;;;;;;;5093536;28;20465;-60
2021/06/09 06:19:05;;;;;;;18.55;16.73;;;;;;;;;;5093452;28;20076;-58
2021/06/09 06:21:31;;;;;;;18.90;17.10;;;;;;;;;;5095216;28;20016;-58
2021/06/09 06:23:58;;;;;;;18.38;16.58;;;;;;;;;;5094615;28;20032;-58
2021/06/09 06:26:25;;;;;;;18.05;16.27;;;;;;;;;;5094633;28;20028;-58
2021/06/09 06:28:54;;;;;;;18.40;16.52;;;;;;;;;;5094506;28;20020;-58
2021/06/09 06:31:23;;;;;;;18.70;16.92;;;;;;;;;;5093779;28;20024;-59
2021/06/09 06:33:50;;;;;;;18.10;14.98;;;;;;;;;;5093261;28;20028;-59
2021/06/09 06:36:17;;;;;;;19.17;17.25;;;;;;;;;;5094380;28;20028;-59
2021/06/09 06:38:45;;;;;;;17.25;15.45;;;;;;;;;;5094445;28;20020;-59
2021/06/09 06:41:11;;;;;;;16.70;15.07;;;;;;;;;;5094736;28;20078;-59
2021/06/09 06:43:37;;;;;;;20.17;16.00;;;;;;;;;;5093030;28;20546;-59
2021/06/09 06:46:05;;;;;;;17.73;15.88;;;;;;;;;;5094616;28;20334;-59
2021/06/09 06:48:32;;;;;;;18.55;16.63;;;;;;;;;;5094569;28;20031;-59
2021/06/09 06:50:58;;;;;;;17.45;15.65;;;;;;;;;;5094214;28;20054;-59
2021/06/09 06:53:24;;;;;;;18.33;16.42;;;;;;;;;;5094351;28;20024;-59
2021/06/09 06:55:50;;;;;;;16.50;14.90;;;;;;;;;;5092943;28;20027;-59
2021/06/09 06:58:16;;;;;;;18.02;16.25;;;;;;;;;;5094059;28;20028;-59
2021/06/09 07:00:42;;;;;;;19.52;17.58;;;;;;;;;;5093759;28;20469;-59
2021/06/09 07:03:09;;;;;;;20.80;18.17;;;;;;;;;;5094862;28;20404;-59
2021/06/09 07:05:35;;;;;;;17.83;16.05;;;;;;;;;;5092746;28;20021;-59
2021/06/09 07:08:02;;;;;;;17.90;16.17;;;;;;;;;;5093598;28;20465;-59
2021/06/09 07:10:28;;;;;;;17.45;15.63;;;;;;;;;;5094268;28;20040;-59
2021/06/09 07:12:58;;;;;;;20.27;17.42;;;;;;;;;;5092985;28;20058;-59
2021/06/09 07:15:26;;;;;;;19.00;17.20;;;;;;;;;;5094293;28;20020;-59
2021/06/09 07:17:53;;;;;;;18.38;16.50;;;;;;;;;;5092546;28;20324;-59
2021/06/09 07:20:23;;;;;;;16.63;14.85;;;;;;;;;;5093865;28;20032;-59
2021/06/09 07:22:49;;;;;;;18.75;16.92;;;;;;;;;;5093906;28;20024;-59
2021/06/09 07:25:16;;;;;;;21.48;18.77;;;;;;;;;;5094228;28;20063;-59
2021/06/09 07:27:45;;;;;;;18.60;16.60;;;;;;;;;;5093122;28;20020;-59
2021/06/09 07:30:12;;;;;;;18.88;17.17;;;;;;;;;;5094049;28;20053;-59
2021/06/09 07:32:42;;;;;;;17.33;15.63;;;;;;;;;;5094506;28;20067;-60
2021/06/09 07:35:09;;;;;;;16.98;15.25;;;;;;;;;;5094041;28;20027;-59
2021/06/09 07:37:41;;;;;;;19.73;17.70;;;;;;;;;;5093603;28;20485;-59
2021/06/09 07:40:08;;;;;;;19.27;17.27;;;;;;;;;;5092467;28;20603;-59
2021/06/09 07:42:35;;;;;;;19.63;17.75;;;;;;;;;;5093637;28;20024;-59
2021/06/09 07:45:11;;;;;;;18.05;15.88;;;;;;;;;;5093694;28;20031;-59
2021/06/09 07:47:40;;;;;;;16.23;14.60;;;;;;;;;;5093947;28;20028;-59
2021/06/09 07:50:08;;;;;;;22.60;17.38;;;;;;;;;;5092284;28;20032;-60
2021/06/09 07:52:36;;;;;;;17.25;15.05;;;;;;;;;;5093816;28;20059;-60
2021/06/09 07:55:03;;;;;;;15.50;13.90;;;;;;;;;;5093545;28;20029;-59
2021/06/09 07:57:32;;;;;;;17.42;15.60;;;;;;;;;;5092285;28;20070;-60
2021/06/09 07:59:59;;;;;;;18.50;16.48;;;;;;;;;;5093571;28;20028;-59
2021/06/09 08:02:25;;;;;;;16.83;15.15;;;;;;;;;;5093717;28;20449;-59
2021/06/09 08:04:52;;;;;;;17.88;16.10;;;;;;;;;;5093188;28;20354;-59
2021/06/09 08:07:18;;;;;;;18.35;16.23;;;;;;;;;;5093434;28;20419;-59
2021/06/09 08:09:44;;;;;;;18.42;16.63;;;;;;;;;;5093351;28;20040;-59
2021/06/09 08:12:11;;;;;;;19.92;16.92;;;;;;;;;;5092502;28;20482;-59
2021/06/09 08:14:38;;;;;;;19.80;17.73;;;;;;;;;;5097197;28;20055;-59
2021/06/09 08:17:04;;;;;;;17.83;16.13;;;;;;;;;;5097056;28;20072;-59
2021/06/09 08:19:31;;;;;;;19.48;16.33;;;;;;;;;;5097071;28;20191;-59
2021/06/09 08:21:57;;;;;;;20.55;15.10;;;;;;;;;;5098206;28;20016;-59
2021/06/09 08:24:23;;;;;;;17.42;15.57;;;;;;;;;;5096924;28;20488;-59
2021/06/09 08:26:50;;;;;;;17.70;16.00;;;;;;;;;;5096570;28;20059;-59
2021/06/09 08:29:16;;;;;;;17.58;15.23;;;;;;;;;;5096782;28;20108;-59
2021/06/09 08:31:42;;;;;;;17.67;15.77;;;;;;;;;;5096905;28;20109;-59
2021/06/09 08:34:08;;;;;;;17.08;15.38;;;;;;;;;;5096783;28;20016;-59
2021/06/09 08:36:35;;;;;;;16.85;14.65;;;;;;;;;;5096943;28;20043;-59
2021/06/09 08:39:03;;;;;;;18.33;16.58;;;;;;;;;;5096665;28;20020;-59
2021/06/09 08:41:39;;;;;;;17.08;15.32;;;;;;;;;;5096296;28;20361;-59
2021/06/09 08:44:05;;;;;;;17.75;15.90;;;;;;;;;;5096624;28;20064;-59
2021/06/09 08:46:33;;;;;;;18.90;17.17;;;;;;;;;;5095359;28;20435;-59
2021/06/09 08:49:01;;;;;;;18.35;16.65;;;;;;;;;;5096350;28;20020;-59
2021/06/09 08:51:27;;;;;;;18.98;17.20;;;;;;;;;;5095285;28;20052;-59
2021/06/09 08:53:53;;;;;;;26.45;18.38;;;;;;;;;;5095118;28;20020;-59
2021/06/09 08:56:20;;;;;;;16.70;14.93;;;;;;;;;;5096380;28;20080;-59
2021/06/09 08:58:47;;;;;;;17.85;16.00;;;;;;;;;;5096286;28;20461;-59
2021/06/09 09:01:14;;;;;;;19.13;17.23;;;;;;;;;;5096230;28;20036;-59
2021/06/09 09:03:44;;;;;;;18.55;16.65;;;;;;;;;;5096279;28;20028;-59
2021/06/09 09:06:10;;;;;;;20.08;18.23;;;;;;;;;;5096208;28;20028;-59
2021/06/09 09:08:36;;;;;;;19.98;18.08;;;;;;;;;;5096016;28;20052;-59
2021/06/09 09:11:03;;;;;;;22.08;20.08;;;;;;;;;;5095996;28;20095;-59
2021/06/09 09:13:29;;;;;;;20.55;18.52;;;;;;;;;;5096049;28;20020;-59
2021/06/09 09:15:55;;;;;;;21.83;19.55;;;;;;;;;;5096272;28;20027;-59
2021/06/09 09:18:36;;;;;;;20.10;16.75;;;;;;;;;;5096797;28;20035;-59
2021/06/09 09:21:02;;;;;;;;;;;;;;;;;;5096731;28;20085;-59
2021/06/09 09:23:29;;;;;;;19.15;17.25;;;;;;;;;;5095715;28;19908;-59
2021/06/09 09:25:56;;;;;;;19.48;17.52;;;;;;;;;;5094622;28;20055;-59
2021/06/09 09:28:23;;;;;;;19.83;17.77;;;;;;;;;;5096096;28;20026;-59
2021/06/09 09:30:49;;;;;;;19.00;17.20;;;;;;;;;;5095779;28;20031;-59
2021/06/09 09:33:17;;;;;;;21.35;17.77;;;;;;;;;;5095709;28;20034;-59
2021/06/09 09:35:44;;;;;;;19.00;16.98;;;;;;;;;;5095360;28;20522;-59
2021/06/09 09:38:18;;;;;;;20.20;18.27;;;;;;;;;;5095896;28;20024;-59
2021/06/09 09:41:05;;;;;;;19.50;17.70;;;;;;;;;;5095541;28;20062;-59
2021/06/09 09:43:45;;;;;;;21.25;18.77;;;;;;;;;;5095456;28;20044;-59
2021/06/09 09:46:12;;;;;;;24.10;19.98;;;;;;;;;;5095954;28;20028;-59
2021/06/09 09:48:41;;;;;;;20.02;18.08;;;;;;;;;;5095839;28;20020;-59
2021/06/09 09:51:07;;;;;;;21.40;17.85;;;;;;;;;;5095626;28;20050;-59
2021/06/09 09:53:34;;;;;;;19.75;17.90;;;;;;;;;;5095258;28;20024;-59
2021/06/09 09:56:02;;;;;;;19.27;15.85;;;;;;;;;;5095557;28;20030;-59
2021/06/09 09:58:29;;;;;;;19.42;17.40;;;;;;;;;;5095665;28;20031;-59
2021/06/09 10:01:15;;;;;;;20.58;18.52;;;;;;;;;;5095941;28;20024;-59
2021/06/09 10:03:42;;;;;;;22.75;20.42;;;;;;;;;;5095358;28;20032;-59
2021/06/09 10:06:16;;;;;;;19.05;17.35;;;;;;;;;;5094992;28;20020;-59
2021/06/09 10:08:42;;;;;;;19.65;17.73;;;;;;;;;;5094844;28;20092;-59
2021/06/09 10:11:13;;;;;;;19.80;17.83;;;;;;;;;;5095190;28;20063;-59
2021/06/09 10:13:40;;;;;;;17.42;15.80;;;;;;;;;;5095174;28;20099;-59
2021/06/09 10:16:26;;;;;;;21.65;18.00;;;;;;;;;;5095174;28;20107;-59
2021/06/09 10:19:12;;;;;;;19.92;17.83;;;;;;;;;;5095057;28;20032;-59
2021/06/09 10:21:56;;;;;;;18.42;16.60;;;;;;;;;;5095040;28;20024;-59
2021/06/09 10:24:23;;;;;;;18.75;16.77;;;;;;;;;;5094493;28;20027;-59
2021/06/09 10:26:56;;;;;;;18.45;16.90;;;;;;;;;;5094490;28;20031;-59
2021/06/09 10:29:24;;;;;;;19.45;17.65;;;;;;;;;;5094524;28;20024;-59
2021/06/09 10:31:54;;;;;;;20.92;18.73;;;;;;;;;;5094790;28;20480;-58
2021/06/09 10:34:23;;;;;;;19.65;17.70;;;;;;;;;;5094336;28;20046;-59
2021/06/09 10:36:50;;;;;;;19.48;17.75;;;;;;;;;;5093904;28;20024;-59
2021/06/09 10:39:17;;;;;;;18.38;16.67;;;;;;;;;;5094209;28;20055;-59
2021/06/09 10:41:47;;;;;;;18.98;17.15;;;;;;;;;;5094706;28;20020;-59
2021/06/09 10:44:17;;;;;;;19.52;17.67;;;;;;;;;;5094139;28;20481;-59
2021/06/09 10:46:44;;;;;;;21.20;17.95;;;;;;;;;;5094400;28;20067;-59
2021/06/09 10:49:13;;;;;;;19.90;17.73;;;;;;;;;;5094269;28;20024;-59
2021/06/09 10:51:39;;;;;;;19.90;17.88;;;;;;;;;;5094602;28;20525;-59
2021/06/09 10:54:10;;;;;;;18.25;16.42;;;;;;;;;;5093086;28;20114;-59
2021/06/09 10:56:37;;;;;;;15.85;14.15;;;;;;;;;;5094834;28;20148;-59
2021/06/09 10:59:03;;;;;;;16.80;15.07;;;;;;;;;;5094219;28;20028;-59
2021/06/09 11:01:30;;;;;;;15.88;14.20;;;;;;;;;;5094117;28;20518;-58
2021/06/09 11:03:57;;;;;;;17.70;15.93;;;;;;;;;;5093343;28;20365;-59
2021/06/09 11:06:36;;;;;;;17.73;16.02;;;;;;;;;;5094521;28;20409;-59
2021/06/09 11:09:17;;;;;;;16.48;14.88;;;;;;;;;;5093649;28;20409;-59
2021/06/09 11:11:44;;;;;;;17.60;15.93;;;;;;;;;;5093978;28;20020;-59
2021/06/09 11:14:39;;;;;;;22.48;16.02;;;;;;;;;;5093610;28;20020;-59
2021/06/09 11:17:05;;;;;;;15.57;14.00;;;;;;;;;;5022371;28;20087;-59
2021/06/09 11:19:34;;;;;;;16.35;14.65;;;;;;;;;;5093980;28;20107;-59
2021/06/09 11:22:15;;;;;;;14.68;12.43;;;;;;;;;;5093797;28;20063;-59
2021/06/09 11:24:41;;;;;;;13.82;12.50;;;;;;;;;;5092589;28;20020;-59
2021/06/09 11:27:26;;;;;;;15.05;13.55;;;;;;;;;;5093620;28;20027;-59
2021/06/09 11:29:52;;;;;;;16.65;15.07;;;;;;;;;;5093753;28;20032;-59
2021/06/09 11:32:18;;;;;;;13.30;11.98;;;;;;;;;;5093526;28;20089;-59
2021/06/09 11:34:54;;;;;;;10.43;9.50;;;;;;;;;;5092482;28;20077;-59
2021/06/09 11:37:20;;;;;;;8.85;8.00;;;;;;;;;;5093723;28;20028;-59
2021/06/09 11:39:58;;;;;;;10.23;8.13;;;;;;;;;;5094359;28;20051;-58
2021/06/09 11:42:24;;;;;;;9.90;9.00;;;;;;;;;;5093632;28;20016;-58
2021/06/09 11:44:50;;;;;;;10.32;9.27;;;;;;;;;;5093653;28;20024;-59
2021/06/09 11:47:17;;;;;;;10.00;9.00;;;;;;;;;;5095283;28;20408;-59
2021/06/09 11:49:43;;;;;;;9.30;8.40;;;;;;;;;;5097897;28;20149;-59
2021/06/09 11:52:09;;;;;;;12.18;10.05;;;;;;;;;;5097635;28;20024;-59
2021/06/09 11:54:36;;;;;;;10.98;9.23;;;;;;;;;;5097522;28;20012;-59
2021/06/09 11:57:13;;;;;;;8.35;7.43;;;;;;;;;;5097521;28;20020;-59
2021/06/09 11:59:39;;;;;;;8.45;7.65;;;;;;;;;;5098031;28;20024;-59
2021/06/09 12:02:10;;;;;;;10.95;9.85;;;;;;;;;;5098099;28;20024;-59
2021/06/09 12:04:36;;;;;;;;;;;;;;;;;;5097217;28;20425;-59
2021/06/09 12:07:06;;;;;;;9.05;8.10;;;;;;;;;;5097310;28;19961;-59
2021/06/09 12:09:43;;;;;;;10.48;9.48;;;;;;;;;;5095874;28;20040;-59
2021/06/09 12:12:12;;;;;;;8.82;7.93;;;;;;;;;;5097257;28;20048;-59
2021/06/09 12:14:38;;;;;;;8.98;8.10;;;;;;;;;;5097160;28;20106;-59
2021/06/09 12:17:22;;;;;;;9.70;8.80;;;;;;;;;;5097190;28;20027;-59
2021/06/09 12:19:59;;;;;;;9.93;8.50;;;;;;;;;;5096546;28;20396;-59
2021/06/09 12:22:26;;;;;;;9.13;8.23;;;;;;;;;;5097316;28;20362;-59
2021/06/09 12:25:01;;;;;;;8.35;7.55;;;;;;;;;;5097020;28;20024;-59
2021/06/09 12:27:28;;;;;;;10.70;8.98;;;;;;;;;;5097437;28;20016;-59
2021/06/09 12:29:54;;;;;;;11.80;10.70;;;;;;;;;;5096810;28;20350;-59
2021/06/09 12:32:26;;;;;;;13.15;11.95;;;;;;;;;;5097109;28;20484;-59
2021/06/09 12:34:53;;;;;;;11.27;10.07;;;;;;;;;;5096583;28;20031;-59
2021/06/09 12:37:19;;;;;;;9.57;8.63;;;;;;;;;;5096511;28;20024;-59
2021/06/09 12:39:52;;;;;;;10.75;9.73;;;;;;;;;;5096591;28;20028;-59
2021/06/09 12:42:18;;;;;;;11.00;9.68;;;;;;;;;;5096032;28;20024;-59
2021/06/09 12:44:48;;;;;;;10.13;9.20;;;;;;;;;;5095287;28;20021;-59
2021/06/09 12:47:23;;;;;;;11.23;10.23;;;;;;;;;;5096893;28;20019;-59
2021/06/09 12:49:49;;;;;;;15.20;11.75;;;;;;;;;;5096639;28;20358;-58
2021/06/09 12:52:15;;;;;;;12.90;11.68;;;;;;;;;;5096669;28;20048;-59
2021/06/09 12:54:50;;;;;;;11.95;10.85;;;;;;;;;;5096325;28;20522;-59
2021/06/09 12:57:16;;;;;;;11.77;10.52;;;;;;;;;;5096793;28;20031;-59
2021/06/09 12:59:42;;;;;;;11.23;10.23;;;;;;;;;;5096273;28;20027;-59
2021/06/09 13:02:08;;;;;;;10.10;9.05;;;;;;;;;;5096266;28;20028;-59
2021/06/09 13:04:40;;;;;;;10.95;9.90;;;;;;;;;;5096757;28;20039;-59
2021/06/09 13:07:07;;;;;;;10.07;9.02;;;;;;;;;;5096811;28;20404;-59
2021/06/09 13:09:33;;;;;;;9.07;8.27;;;;;;;;;;5096109;28;20357;-59
2021/06/09 13:12:01;;;;;;;7.22;6.47;;;;;;;;;;5096009;28;20048;-59
2021/06/09 13:14:35;;;;;;;9.65;8.70;;;;;;;;;;5094102;28;20032;-59
2021/06/09 13:17:02;;;;;;;9.73;8.82;;;;;;;;;;5095723;28;20022;-59
2021/06/09 13:19:28;;;;;;;10.63;9.63;;;;;;;;;;5095672;28;20039;-59
2021/06/09 13:21:54;;;;;;;9.25;8.32;;;;;;;;;;5096463;28;20016;-59
2021/06/09 13:24:20;;;;;;;8.35;7.55;;;;;;;;;;5095487;28;20095;-59
2021/06/09 13:26:47;;;;;;;11.40;7.53;;;;;;;;;;5095935;28;20051;-59
2021/06/09 13:29:14;;;;;;;8.38;7.68;;;;;;;;;;5095567;28;20077;-59
2021/06/09 13:31:42;;;;;;;10.70;8.30;;;;;;;;;;5095902;28;20024;-59
2021/06/09 13:34:08;;;;;;;8.40;7.60;;;;;;;;;;5095970;28;20361;-59
2021/06/09 13:36:35;;;;;;;7.72;7.05;;;;;;;;;;5095770;28;20016;-59
2021/06/09 13:39:11;;;;;;;7.75;6.95;;;;;;;;;;5095162;28;20024;-59
2021/06/09 13:41:41;;;;;;;6.43;5.80;;;;;;;;;;5095250;28;20481;-59
2021/06/09 13:44:08;;;;;;;6.90;6.18;;;;;;;;;;5095737;28;20028;-59
2021/06/09 13:46:44;;;;;;;6.97;6.32;;;;;;;;;;5095310;28;20032;-59
2021/06/09 13:49:10;;;;;;;5.72;5.22;;;;;;;;;;5095208;28;20107;-59
2021/06/09 13:51:37;;;;;;;5.78;4.93;;;;;;;;;;5095292;28;20038;-59
2021/06/09 13:54:05;;;;;;;5.03;4.15;;;;;;;;;;5095355;28;20022;-59
2021/06/09 13:56:45;;;;;;;6.20;4.22;;;;;;;;;;5095074;28;20024;-59
2021/06/09 13:59:19;;;;;;;4.82;3.65;;;;;;;;;;5095207;28;20028;-59
2021/06/09 14:01:46;;;;;;;4.70;4.07;;;;;;;;;;5095591;28;20012;-59
2021/06/09 14:04:15;;;;;;;5.78;4.30;;;;;;;;;;5095948;28;20050;-59
2021/06/09 14:06:41;;;;;;;4.37;3.93;;;;;;;;;;5093676;28;20012;-59
2021/06/09 14:09:09;;;;;;;4.20;3.80;;;;;;;;;;5094530;28;20048;-59
2021/06/09 14:11:54;;;;;;;4.25;3.75;;;;;;;;;;5094040;28;20028;-59
2021/06/09 14:14:21;;;;;;;4.38;3.75;;;;;;;;;;5095071;28;20038;-59
2021/06/09 14:17:07;;;;;;;4.13;3.30;;;;;;;;;;5094652;28;20369;-59
2021/06/09 14:19:34;;;;;;;7.95;3.88;;;;;;;;;;5093923;28;20434;-59
2021/06/09 14:22:00;;;;;;;4.20;3.40;;;;;;;;;;5095409;28;20024;-59
2021/06/09 14:24:26;;;;;;;3.65;3.22;;;;;;;;;;5095321;28;20020;-59
2021/06/09 14:26:54;;;;;;;4.38;3.78;;;;;;;;;;5094501;28;20032;-59
2021/06/09 14:29:20;;;;;;;4.75;3.75;;;;;;;;;;5094304;28;20016;-59
2021/06/09 14:31:46;;;;;;;3.70;3.08;;;;;;;;;;5094992;28;20080;-59